Time;durP1;ratioP1;P1;durP2;ratioP2;P2;SDS_P1;SDS_P2;PMS_P1;PMS_P2;Temp;Humidity;BMP_temperature;BMP_pressure;BME280_temperature;BME280_humidity;BME280_pressure;Samples;Min_cycle;Max_cycle;Signal;HPM_P1;HPM_P2
2022/08/17 00:00:31;;;;;;;5.83;5.43;;;21.30;99.90;;;;;;6063141;23;20440;-67
2022/08/17 00:03:02;;;;;;;5.93;5.40;;;21.30;99.90;;;;;;6062962;23;20493;-67
2022/08/17 00:05:33;;;;;;;6.27;5.77;;;21.30;99.90;;;;;;6062273;23;20436;-67
2022/08/17 00:08:00;;;;;;;6.00;5.60;;;21.30;99.90;;;;;;6063040;23;20456;-68
2022/08/17 00:10:28;;;;;;;6.53;6.13;;;21.20;99.90;;;;;;6063138;23;20426;-67
2022/08/17 00:12:54;;;;;;;5.90;5.53;;;21.20;99.90;;;;;;6062230;23;20867;-67
2022/08/17 00:15:23;;;;;;;6.43;6.03;;;21.30;99.90;;;;;;6062483;23;20434;-67
2022/08/17 00:17:51;;;;;;;5.90;5.50;;;21.20;99.90;;;;;;6062630;23;20446;-67
2022/08/17 00:20:19;;;;;;;6.97;6.17;;;21.20;99.90;;;;;;6062435;23;20939;-68
2022/08/17 00:22:47;;;;;;;6.80;6.30;;;21.10;99.90;;;;;;6062995;23;20458;-67
2022/08/17 00:25:19;;;;;;;6.97;6.40;;;21.10;99.90;;;;;;6062598;23;20427;-67
2022/08/17 00:27:47;;;;;;;7.13;6.63;;;21.10;99.90;;;;;;6062791;23;20456;-68
2022/08/17 00:30:14;;;;;;;7.90;7.37;;;21.10;99.90;;;;;;6062681;23;20435;-67
2022/08/17 00:32:44;;;;;;;7.20;6.67;;;21.00;99.90;;;;;;6062716;23;20466;-67
2022/08/17 00:35:14;;;;;;;6.60;6.10;;;20.80;99.90;;;;;;6062453;23;20813;-67
2022/08/17 00:37:42;;;;;;;8.10;7.50;;;20.70;99.90;;;;;;6062840;23;20428;-67
2022/08/17 00:40:14;;;;;;;6.73;6.33;;;20.60;99.90;;;;;;6062790;23;20421;-67
2022/08/17 00:42:43;;;;;;;7.47;6.97;;;20.60;99.90;;;;;;6062693;23;20453;-67
2022/08/17 00:45:12;;;;;;;7.20;6.60;;;20.50;99.90;;;;;;6062190;23;20774;-68
2022/08/17 00:47:40;;;;;;;7.00;6.40;;;20.50;99.90;;;;;;6062641;23;20991;-67
2022/08/17 00:50:10;;;;;;;6.30;5.83;;;20.50;99.90;;;;;;6062660;23;20429;-67
2022/08/17 00:52:41;;;;;;;7.23;6.73;;;20.50;99.90;;;;;;6062763;23;20535;-67
2022/08/17 00:55:10;;;;;;;7.57;6.80;;;20.60;99.90;;;;;;6062283;23;20501;-67
2022/08/17 00:57:42;;;;;;;7.07;6.40;;;20.50;99.90;;;;;;6062630;23;20435;-68
2022/08/17 01:00:13;;;;;;;8.87;6.80;;;20.50;99.90;;;;;;6062883;23;20426;-67
2022/08/17 01:02:43;;;;;;;7.00;6.50;;;20.50;99.90;;;;;;6062393;23;20450;-67
2022/08/17 01:05:16;;;;;;;6.80;6.30;;;20.40;99.90;;;;;;6062467;23;20447;-67
2022/08/17 01:07:44;;;;;;;9.43;6.43;;;20.50;99.90;;;;;;6062687;23;20439;-67
2022/08/17 01:10:14;;;;;;;6.80;6.30;;;20.40;99.90;;;;;;6062524;23;20431;-67
2022/08/17 01:12:41;;;;;;;6.97;6.37;;;20.40;99.90;;;;;;6062641;23;20463;-67
2022/08/17 01:15:08;;;;;;;7.43;6.87;;;20.30;99.90;;;;;;6062162;23;20459;-67
2022/08/17 01:17:35;;;;;;;7.10;6.50;;;20.20;99.90;;;;;;6062519;23;20498;-67
2022/08/17 01:20:04;;;;;;;7.10;6.60;;;20.20;99.90;;;;;;6062814;23;20471;-67
2022/08/17 01:22:32;;;;;;;7.33;6.57;;;20.20;99.90;;;;;;6062389;23;20503;-67
2022/08/17 01:25:05;;;;;;;6.63;6.20;;;20.20;99.90;;;;;;6062527;23;20431;-67
2022/08/17 01:27:33;;;;;;;6.53;6.13;;;20.20;99.90;;;;;;6062185;23;20439;-67
2022/08/17 01:30:05;;;;;;;6.80;6.27;;;20.20;99.90;;;;;;6062843;23;20451;-67
2022/08/17 01:32:33;;;;;;;7.00;6.50;;;20.20;99.90;;;;;;6062310;23;20533;-67
2022/08/17 01:35:02;;;;;;;6.80;6.30;;;20.20;99.90;;;;;;6062237;23;20455;-68
2022/08/17 01:37:33;;;;;;;7.70;6.90;;;20.30;99.90;;;;;;6062637;23;20474;-67
2022/08/17 01:40:05;;;;;;;6.20;5.70;;;20.20;99.90;;;;;;6062421;23;20787;-68
2022/08/17 01:42:37;;;;;;;6.70;6.30;;;20.20;99.90;;;;;;6062558;23;20482;-67
2022/08/17 01:45:08;;;;;;;7.90;7.30;;;20.20;99.90;;;;;;6062153;23;20501;-67
2022/08/17 01:47:36;;;;;;;7.73;7.13;;;20.10;99.90;;;;;;6061768;23;20436;-67
2022/08/17 01:50:09;;;;;;;7.30;6.70;;;20.00;99.90;;;;;;6063430;23;20423;-67
2022/08/17 01:52:39;;;;;;;7.30;6.80;;;19.90;99.90;;;;;;6063252;23;20954;-67
2022/08/17 01:55:07;;;;;;;6.80;6.40;;;19.80;99.90;;;;;;6063211;23;20426;-67
2022/08/17 01:57:34;;;;;;;7.20;6.63;;;19.80;99.90;;;;;;6063308;23;20425;-67
2022/08/17 02:00:01;;;;;;;7.53;6.93;;;19.80;99.90;;;;;;6063439;23;20434;-68
2022/08/17 02:02:28;;;;;;;8.20;7.40;;;19.80;99.90;;;;;;6063715;23;20447;-67
2022/08/17 02:04:55;;;;;;;6.70;6.30;;;19.70;99.90;;;;;;6062938;23;20850;-67
2022/08/17 02:07:22;;;;;;;8.70;8.00;;;19.60;99.90;;;;;;6062374;23;20455;-67
2022/08/17 02:09:50;;;;;;;6.80;6.40;;;19.60;99.90;;;;;;6062204;23;20806;-67
2022/08/17 02:12:18;;;;;;;7.03;6.43;;;19.60;99.90;;;;;;6063009;23;20933;-67
2022/08/17 02:14:45;;;;;;;7.50;7.00;;;19.60;99.90;;;;;;6063147;23;20451;-67
2022/08/17 02:17:12;;;;;;;7.80;7.30;;;19.60;99.90;;;;;;6063243;23;21045;-67
2022/08/17 02:19:39;;;;;;;7.37;6.87;;;19.60;99.90;;;;;;6063653;23;20445;-67
2022/08/17 02:22:06;;;;;;;8.17;7.43;;;19.60;99.90;;;;;;6063674;23;20465;-67
2022/08/17 02:24:37;;;;;;;8.00;7.40;;;19.50;99.90;;;;;;6063237;23;20988;-67
2022/08/17 02:27:06;;;;;;;7.40;6.83;;;19.40;99.90;;;;;;6062617;23;20498;-68
2022/08/17 02:29:34;;;;;;;8.53;7.83;;;19.30;99.90;;;;;;6063694;23;20439;-67
2022/08/17 02:32:01;;;;;;;7.90;7.40;;;19.30;99.90;;;;;;6063228;23;20454;-67
2022/08/17 02:34:28;;;;;;;8.20;7.60;;;19.20;99.90;;;;;;6063468;23;20602;-67
2022/08/17 02:36:56;;;;;;;7.23;6.73;;;19.20;99.90;;;;;;6062933;23;20457;-67
2022/08/17 02:39:23;;;;;;;7.90;7.37;;;19.30;99.90;;;;;;6063202;23;20427;-67
2022/08/17 02:41:50;;;;;;;7.70;7.10;;;19.30;99.90;;;;;;6063020;23;20821;-68
2022/08/17 02:44:19;;;;;;;7.80;7.30;;;19.30;99.90;;;;;;6063303;23;20733;-68
2022/08/17 02:46:46;;;;;;;8.30;7.70;;;19.40;99.90;;;;;;6063001;23;20477;-67
2022/08/17 02:49:14;;;;;;;7.23;6.80;;;19.40;99.90;;;;;;6063352;23;20489;-67
2022/08/17 02:51:41;;;;;;;7.10;6.57;;;19.40;99.90;;;;;;6063364;23;20473;-67
2022/08/17 02:54:08;;;;;;;8.60;7.13;;;19.50;99.90;;;;;;6062705;23;20544;-68
2022/08/17 02:56:35;;;;;;;8.10;7.60;;;19.50;99.90;;;;;;6063074;23;20482;-67
2022/08/17 02:59:02;;;;;;;7.67;7.07;;;19.50;99.90;;;;;;6063365;23;20451;-67
2022/08/17 03:01:30;;;;;;;7.90;7.30;;;19.50;99.90;;;;;;6062864;23;20505;-67
2022/08/17 03:03:57;;;;;;;7.50;7.00;;;19.50;99.90;;;;;;6063124;23;20896;-67
2022/08/17 03:06:25;;;;;;;7.40;6.80;;;19.50;99.90;;;;;;6062250;23;20481;-67
2022/08/17 03:08:53;;;;;;;7.40;6.90;;;19.60;99.90;;;;;;6063020;23;20443;-67
2022/08/17 03:11:20;;;;;;;8.00;7.40;;;19.60;99.90;;;;;;6063192;23;20519;-68
2022/08/17 03:13:47;;;;;;;8.37;7.83;;;19.70;99.90;;;;;;6062916;23;20467;-67
2022/08/17 03:16:14;;;;;;;8.70;8.07;;;19.60;99.90;;;;;;6062810;23;20452;-67
2022/08/17 03:18:43;;;;;;;8.73;8.03;;;19.60;99.90;;;;;;6063120;23;20910;-67
2022/08/17 03:21:10;;;;;;;8.03;7.43;;;19.50;99.90;;;;;;6063147;23;20475;-67
2022/08/17 03:23:39;;;;;;;8.43;7.73;;;19.40;99.90;;;;;;6062954;23;20454;-67
2022/08/17 03:26:09;;;;;;;8.63;8.03;;;19.30;99.90;;;;;;6062886;23;20440;-67
2022/08/17 03:28:37;;;;;;;9.07;8.47;;;19.20;99.90;;;;;;6062943;23;20974;-67
2022/08/17 03:31:05;;;;;;;8.93;8.30;;;19.10;99.90;;;;;;6063213;23;20510;-67
2022/08/17 03:33:33;;;;;;;9.30;8.70;;;19.00;99.90;;;;;;6062857;23;20480;-67
2022/08/17 03:36:02;;;;;;;9.50;8.70;;;19.00;99.90;;;;;;6062610;23;20985;-68
2022/08/17 03:38:29;;;;;;;9.40;8.67;;;19.00;99.90;;;;;;6063033;23;20428;-67
2022/08/17 03:40:56;;;;;;;9.70;9.00;;;18.90;99.90;;;;;;6063302;23;20431;-67
2022/08/17 03:43:23;;;;;;;9.33;8.60;;;18.90;99.90;;;;;;6063238;23;20427;-67
2022/08/17 03:57:00;;;;;;;9.27;8.60;;;18.80;99.90;;;;;;6062536;23;20463;-67
2022/08/17 03:59:28;;;;;;;10.83;9.90;;;18.70;99.90;;;;;;6063088;23;20934;-67
2022/08/17 04:01:59;;;;;;;10.43;9.73;;;18.80;99.90;;;;;;6062971;23;20481;-67
2022/08/17 04:04:26;;;;;;;9.63;8.93;;;18.80;99.90;;;;;;6062819;23;20431;-67
2022/08/17 04:06:55;;;;;;;10.70;9.90;;;18.80;99.90;;;;;;6062527;23;20483;-67
2022/08/17 04:09:22;;;;;;;10.30;9.37;;;18.90;99.90;;;;;;6062704;23;20440;-69
2022/08/17 04:11:48;;;;;;;10.13;9.33;;;18.90;99.90;;;;;;6062454;23;20855;-67
2022/08/17 04:14:16;;;;;;;11.43;10.63;;;18.90;99.90;;;;;;6062879;23;20562;-67
2022/08/17 04:16:44;;;;;;;10.63;9.93;;;18.80;99.90;;;;;;6062055;23;20455;-67
2022/08/17 04:19:11;;;;;;;10.77;9.77;;;18.80;99.90;;;;;;6062947;23;20474;-67
2022/08/17 04:21:39;;;;;;;11.23;10.37;;;18.80;99.90;;;;;;6062719;23;20468;-68
2022/08/17 04:24:07;;;;;;;9.80;9.10;;;18.80;99.90;;;;;;6062834;23;20427;-67
2022/08/17 04:26:34;;;;;;;10.13;9.33;;;18.80;99.90;;;;;;6062140;23;20483;-68
2022/08/17 04:29:01;;;;;;;10.67;9.87;;;18.80;99.90;;;;;;6063009;23;20427;-67
2022/08/17 04:31:29;;;;;;;10.00;9.30;;;18.90;99.90;;;;;;6063027;23;20447;-68
2022/08/17 04:33:56;;;;;;;10.80;9.90;;;18.90;99.90;;;;;;6062520;23;20500;-67
2022/08/17 04:36:23;;;;;;;9.70;9.10;;;18.90;99.90;;;;;;6062127;23;20803;-68
2022/08/17 04:38:50;;;;;;;9.90;9.13;;;19.00;99.90;;;;;;6063079;23;20423;-67
2022/08/17 04:44:17;;;;;;;8.90;8.20;;;19.10;99.90;;;;;;6002947;23;20672;-67
2022/08/17 04:46:44;;;;;;;7.60;7.00;;;19.10;99.90;;;;;;6002533;23;20454;-67
2022/08/17 04:49:11;;;;;;;9.43;8.73;;;19.10;99.90;;;;;;6028825;23;20497;-68
2022/08/17 04:51:41;;;;;;;8.73;8.00;;;19.20;99.90;;;;;;6062743;23;20447;-67
2022/08/17 04:54:11;;;;;;;8.70;8.10;;;19.20;99.90;;;;;;6062619;23;20739;-67
2022/08/17 04:56:40;;;;;;;8.53;7.93;;;19.20;99.90;;;;;;6062010;23;20483;-68
2022/08/17 04:59:11;;;;;;;8.47;7.77;;;19.20;99.90;;;;;;6062808;23;20427;-68
2022/08/17 05:01:40;;;;;;;7.90;7.37;;;19.30;99.90;;;;;;6062660;23;20435;-67
2022/08/17 05:04:09;;;;;;;8.00;7.40;;;19.30;99.90;;;;;;6062302;23;20851;-67
2022/08/17 05:06:36;;;;;;;8.07;7.50;;;19.40;99.90;;;;;;6062234;23;20967;-68
2022/08/17 05:09:04;;;;;;;6.90;6.40;;;19.50;99.90;;;;;;6062457;23;20507;-67
2022/08/17 05:11:31;;;;;;;8.07;7.47;;;19.60;99.90;;;;;;6062488;23;20439;-67
2022/08/17 05:13:59;;;;;;;7.93;7.30;;;19.70;99.90;;;;;;6062540;23;20497;-68
2022/08/17 05:16:28;;;;;;;7.20;6.53;;;19.80;99.90;;;;;;6062404;23;20529;-67
2022/08/17 05:18:57;;;;;;;6.60;6.10;;;19.90;99.90;;;;;;6062296;23;20486;-67
2022/08/17 05:21:24;;;;;;;7.93;7.33;;;19.90;99.90;;;;;;6062481;23;20517;-67
2022/08/17 05:23:52;;;;;;;7.60;7.10;;;20.00;99.90;;;;;;6061634;23;20521;-68
2022/08/17 05:26:21;;;;;;;6.90;6.40;;;20.10;99.90;;;;;;6061880;23;20455;-68
2022/08/17 05:28:48;;;;;;;6.57;6.03;;;20.20;99.90;;;;;;6062106;23;20576;-68
2022/08/17 05:31:17;;;;;;;5.73;5.27;;;20.30;99.90;;;;;;6062321;23;20434;-68
2022/08/17 05:33:44;;;;;;;7.13;6.63;;;20.30;99.90;;;;;;6062318;23;20454;-68
2022/08/17 05:36:14;;;;;;;6.83;6.30;;;20.40;99.90;;;;;;6061854;23;21047;-68
2022/08/17 05:38:41;;;;;;;6.93;6.33;;;20.50;99.90;;;;;;6061788;23;20899;-68
2022/08/17 05:41:09;;;;;;;7.77;7.17;;;20.60;99.90;;;;;;6061848;23;20437;-67
2022/08/17 05:43:39;;;;;;;8.27;7.57;;;20.70;99.90;;;;;;6062667;23;20468;-67
2022/08/17 05:46:14;;;;;;;9.40;8.63;;;20.70;99.90;;;;;;6062494;23;20436;-67
2022/08/17 05:48:46;;;;;;;9.57;8.77;;;20.60;99.90;;;;;;6062316;23;20470;-67
2022/08/17 05:51:37;;;;;;;9.13;8.50;;;20.50;99.90;;;;;;6062153;23;20447;-68
2022/08/17 05:54:15;;;;;;;9.00;8.30;;;20.40;99.90;;;;;;6052088;23;20456;-67
2022/08/17 05:57:00;;;;;;;9.50;8.50;;;20.50;99.90;;;;;;6061513;23;20441;-67
2022/08/17 05:59:36;;;;;;;7.20;6.70;;;20.50;99.90;;;;;;6062018;23;20422;-67
2022/08/17 06:02:15;;;;;;;9.23;8.40;;;20.70;99.90;;;;;;6062353;23;20467;-68
2022/08/17 06:05:02;;;;;;;8.93;8.13;;;20.80;99.90;;;;;;6061902;23;20441;-68
2022/08/17 06:07:34;;;;;;;8.90;8.07;;;21.00;99.90;;;;;;6061946;23;20430;-67
2022/08/17 06:10:09;;;;;;;9.70;8.67;;;21.00;99.90;;;;;;6061609;23;20415;-68
2022/08/17 06:12:43;;;;;;;9.63;8.90;;;20.90;99.90;;;;;;6061867;23;20985;-67
2022/08/17 06:15:24;;;;;;;9.63;8.63;;;20.90;99.90;;;;;;6061660;23;20491;-67
2022/08/17 06:17:57;;;;;;;9.30;8.47;;;20.90;99.90;;;;;;6062158;23;20450;-67
2022/08/17 06:20:29;;;;;;;10.10;9.10;;;21.00;99.90;;;;;;6061456;23;20459;-68
2022/08/17 06:23:05;;;;;;;10.53;9.63;;;21.00;99.90;;;;;;6062154;23;20481;-67
2022/08/17 06:25:36;;;;;;;10.17;9.37;;;21.00;99.90;;;;;;6061532;23;20495;-68
2022/08/17 06:28:08;;;;;;;10.93;9.70;;;21.00;99.90;;;;;;6061782;23;20787;-68
2022/08/17 06:30:44;;;;;;;10.90;10.00;;;21.00;99.90;;;;;;6061811;23;20506;-67
2022/08/17 06:33:19;;;;;;;10.93;10.00;;;20.90;99.90;;;;;;6061778;23;20457;-68
2022/08/17 06:35:55;;;;;;;11.10;10.17;;;20.90;99.90;;;;;;6062271;23;20468;-67
2022/08/17 06:38:33;;;;;;;12.80;11.80;;;21.00;99.90;;;;;;6063148;23;20415;-68
2022/08/17 06:41:13;;;;;;;12.50;11.50;;;21.10;99.90;;;;;;6063189;23;20479;-67
2022/08/17 06:43:50;;;;;;;11.57;10.47;;;21.10;99.90;;;;;;6063000;23;20771;-68
2022/08/17 06:46:24;;;;;;;11.70;10.77;;;21.20;99.90;;;;;;6062651;23;20453;-67
2022/08/17 06:49:06;;;;;;;10.97;10.03;;;21.40;99.90;;;;;;6062932;23;20953;-67
2022/08/17 06:51:38;;;;;;;9.97;9.27;;;21.50;99.90;;;;;;6062959;23;20763;-67
2022/08/17 06:54:11;;;;;;;9.77;9.07;;;21.60;99.90;;;;;;6063233;23;20526;-67
2022/08/17 06:56:44;;;;;;;10.30;9.40;;;21.60;99.90;;;;;;6062560;23;20464;-68
2022/08/17 06:59:18;;;;;;;10.33;9.53;;;21.80;99.90;;;;;;6062850;23;20459;-67
2022/08/17 07:01:46;;;;;;;11.70;10.67;;;22.10;99.90;;;;;;6063049;23;20419;-68
2022/08/17 07:04:18;;;;;;;10.30;9.43;;;22.50;99.90;;;;;;6062544;23;20475;-68
2022/08/17 07:06:50;;;;;;;10.63;9.83;;;22.80;99.90;;;;;;6062960;23;20451;-68
2022/08/17 07:09:23;;;;;;;10.47;9.67;;;23.20;99.90;;;;;;6062370;23;20420;-68
2022/08/17 07:11:54;;;;;;;10.57;9.53;;;23.70;99.90;;;;;;6063088;23;20468;-68
2022/08/17 07:14:38;;;;;;;9.03;8.33;;;24.30;99.90;;;;;;6062602;23;20470;-68
2022/08/17 07:17:10;;;;;;;9.43;8.70;;;25.10;99.90;;;;;;6060616;23;20507;-68
2022/08/17 07:19:40;;;;;;;9.57;8.83;;;25.40;99.90;;;;;;6062570;23;20423;-68
2022/08/17 07:22:22;;;;;;;8.50;7.80;;;25.70;99.90;;;;;;6062800;23;20502;-68
2022/08/17 07:24:56;;;;;;;7.63;7.10;;;25.90;99.90;;;;;;6062534;23;20494;-68
2022/08/17 07:27:27;;;;;;;8.10;7.40;;;26.20;99.90;;;;;;6062162;23;20489;-68
2022/08/17 07:29:58;;;;;;;8.03;7.47;;;26.50;99.90;;;;;;6062616;23;20419;-68
2022/08/17 07:32:30;;;;;;;7.40;6.90;;;26.80;99.90;;;;;;6062664;23;20530;-68
2022/08/17 07:35:11;;;;;;;8.60;7.97;;;27.30;99.20;;;;;;6062471;23;20479;-68
2022/08/17 07:37:42;;;;;;;8.07;7.30;;;27.60;98.10;;;;;;6062538;23;20506;-69
2022/08/17 07:40:26;;;;;;;10.17;7.60;;;27.90;97.40;;;;;;6063033;23;20473;-68
2022/08/17 07:43:08;;;;;;;10.67;7.13;;;28.10;96.30;;;;;;6062719;23;20430;-68
2022/08/17 07:48:26;;;;;;;6.77;6.27;;;28.20;95.50;;;;;;6062277;23;20427;-68
2022/08/17 07:50:53;;;;;;;6.93;6.33;;;28.40;94.30;;;;;;6062484;23;20907;-69
2022/08/17 07:53:24;;;;;;;7.00;6.40;;;28.60;93.90;;;;;;6062625;23;20502;-69
2022/08/17 07:55:53;;;;;;;6.43;6.00;;;29.00;92.80;;;;;;6061942;23;20463;-68
2022/08/17 07:58:22;;;;;;;5.60;5.10;;;29.40;92.20;;;;;;6062444;23;20431;-68
2022/08/17 08:01:05;;;;;;;6.00;5.60;;;29.80;90.70;;;;;;6062303;23;20809;-68
2022/08/17 08:03:33;;;;;;;6.30;5.80;;;29.90;90.30;;;;;;6062863;23;20416;-68
2022/08/17 08:06:02;;;;;;;5.33;4.93;;;30.20;89.80;;;;;;6061966;23;20455;-69
2022/08/17 08:08:37;;;;;;;6.17;4.90;;;30.50;86.90;;;;;;6062153;23;20830;-69
2022/08/17 08:11:08;;;;;;;7.23;6.53;;;30.70;85.50;;;;;;6062990;23;20446;-69
2022/08/17 08:13:41;;;;;;;7.77;5.50;;;30.70;85.40;;;;;;6062571;23;20906;-68
2022/08/17 08:16:23;;;;;;;5.30;4.90;;;30.90;84.10;;;;;;6061653;23;20473;-69
2022/08/17 08:18:53;;;;;;;3.97;3.77;;;31.10;80.00;;;;;;6062858;23;20446;-69
2022/08/17 08:21:36;;;;;;;4.87;4.47;;;31.10;77.50;;;;;;6062942;23;20455;-69
2022/08/17 08:24:22;;;;;;;4.67;4.27;;;30.80;76.80;;;;;;6062676;23;20451;-68
2022/08/17 08:27:00;;;;;;;5.10;4.73;;;30.50;77.70;;;;;;6062223;23;20427;-69
2022/08/17 08:29:36;;;;;;;5.20;4.80;;;30.20;77.70;;;;;;6062225;23;20415;-69
2022/08/17 08:32:11;;;;;;;5.20;4.70;;;29.90;77.70;;;;;;6062716;23;20431;-68
2022/08/17 08:34:49;;;;;;;4.87;4.47;;;29.90;78.40;;;;;;6062191;23;20802;-68
2022/08/17 08:37:21;;;;;;;4.57;4.20;;;29.90;78.00;;;;;;6062330;23;20435;-68
2022/08/17 08:39:58;;;;;;;5.00;4.63;;;29.90;78.20;;;;;;6062319;23;20411;-68
2022/08/17 08:42:33;;;;;;;5.33;5.00;;;29.90;78.10;;;;;;6062408;23;20451;-68
2022/08/17 08:45:05;;;;;;;5.80;4.77;;;29.80;78.20;;;;;;6062207;23;20442;-68
2022/08/17 08:48:03;;;;;;;5.33;4.90;;;29.60;78.30;;;;;;6062607;23;20499;-68
2022/08/17 08:50:39;;;;;;;5.30;4.90;;;29.50;79.40;;;;;;6062345;23;20434;-69
2022/08/17 08:53:17;;;;;;;5.30;4.97;;;29.20;80.10;;;;;;6062729;23;20427;-69
2022/08/17 08:55:58;;;;;;;4.30;4.00;;;29.00;80.20;;;;;;6062024;23;20826;-68
2022/08/17 08:58:34;;;;;;;4.90;4.60;;;28.80;80.20;;;;;;6062218;23;20531;-68
2022/08/17 09:01:07;;;;;;;4.63;4.23;;;28.60;80.00;;;;;;6062342;23;20555;-68
2022/08/17 09:03:59;;;;;;;5.90;4.87;;;28.20;81.50;;;;;;6062357;23;20427;-68
2022/08/17 09:06:39;;;;;;;8.10;4.83;;;27.60;83.20;;;;;;6058296;23;20463;-68
2022/08/17 09:09:17;;;;;;;6.87;4.63;;;27.30;85.20;;;;;;6062249;23;20451;-68
2022/08/17 09:11:52;;;;;;;4.50;4.10;;;27.10;85.80;;;;;;6062034;23;20443;-68
2022/08/17 09:14:27;;;;;;;4.97;4.40;;;27.00;85.80;;;;;;6062122;23;20451;-68
2022/08/17 09:17:02;;;;;;;5.03;4.63;;;26.90;87.40;;;;;;6061867;23;20419;-68
2022/08/17 09:19:34;;;;;;;4.20;3.90;;;26.90;86.60;;;;;;6061993;23;20427;-68
2022/08/17 09:22:10;;;;;;;4.87;4.47;;;27.00;87.50;;;;;;6062535;23;20702;-68
2022/08/17 09:24:42;;;;;;;5.80;5.27;;;27.10;88.10;;;;;;6062268;23;20446;-68
2022/08/17 09:27:14;;;;;;;5.10;4.70;;;27.10;87.40;;;;;;6061936;23;20428;-68
2022/08/17 09:29:47;;;;;;;4.93;4.20;;;27.10;86.60;;;;;;6062154;23;20836;-68
2022/08/17 09:32:19;;;;;;;5.27;4.77;;;27.10;86.40;;;;;;6062045;23;20423;-68
2022/08/17 09:34:53;;;;;;;6.23;4.90;;;27.00;86.80;;;;;;6062194;23;20478;-68
2022/08/17 09:37:28;;;;;;;4.90;4.50;;;26.90;87.40;;;;;;6062298;23;20461;-68
2022/08/17 09:40:07;;;;;;;5.00;4.60;;;26.80;88.50;;;;;;6062021;23;20418;-68
2022/08/17 09:42:45;;;;;;;5.13;4.70;;;26.80;88.90;;;;;;6062048;23;20443;-68
2022/08/17 09:45:27;;;;;;;5.57;5.03;;;26.70;90.00;;;;;;6062015;23;20467;-68
2022/08/17 09:47:59;;;;;;;6.40;5.50;;;26.50;90.90;;;;;;6062092;23;20427;-68
2022/08/17 09:50:35;;;;;;;5.73;5.23;;;26.10;92.00;;;;;;6062224;23;20430;-69
2022/08/17 09:53:02;;;;;;;6.17;5.57;;;26.00;93.70;;;;;;6062027;23;20454;-69
2022/08/17 09:55:46;;;;;;;8.83;6.27;;;25.80;93.50;;;;;;6061474;23;20493;-69
2022/08/17 09:58:22;;;;;;;6.00;5.50;;;25.90;93.10;;;;;;6062335;23;20427;-69
2022/08/17 10:01:00;;;;;;;5.80;5.27;;;25.70;93.70;;;;;;6061596;23;20865;-69
2022/08/17 10:03:40;;;;;;;5.40;4.80;;;25.80;94.20;;;;;;6061775;23;20968;-69
2022/08/17 10:06:13;;;;;;;5.90;5.30;;;25.80;95.30;;;;;;6061675;23;20930;-68
2022/08/17 10:08:46;;;;;;;5.93;5.00;;;25.90;94.00;;;;;;6061986;23;20490;-68
2022/08/17 10:12:14;;;;;;;6.00;5.50;;;25.90;94.60;;;;;;6062723;23;20459;-68
2022/08/17 10:14:22;;;;;;;5.43;4.80;;;26.00;93.90;;;;;;6062831;23;20966;-68
2022/08/17 10:16:55;;;;;;;6.17;5.67;;;26.00;93.80;;;;;;6063072;23;20470;-68
2022/08/17 10:19:31;;;;;;;5.23;4.83;;;26.00;94.50;;;;;;6063094;23;20819;-68
2022/08/17 10:27:50;;;;;;;5.83;5.37;;;25.70;96.20;;;;;;6060850;23;20485;-68
2022/08/17 10:30:23;;;;;;;6.40;5.40;;;25.50;96.50;;;;;;6063132;23;20505;-68
2022/08/17 10:32:55;;;;;;;5.97;5.40;;;25.30;97.30;;;;;;6063405;23;20431;-68
2022/08/17 10:35:32;;;;;;;6.43;5.67;;;25.20;99.00;;;;;;6062997;23;20454;-68
2022/08/17 10:38:29;;;;;;;8.07;6.50;;;25.30;99.90;;;;;;6063298;23;20993;-68
2022/08/17 10:41:01;;;;;;;6.60;5.90;;;24.90;99.90;;;;;;6062687;23;20930;-68
2022/08/17 10:43:43;;;;;;;7.07;6.47;;;24.60;99.90;;;;;;6062813;23;20772;-68
2022/08/17 10:46:18;;;;;;;7.47;6.97;;;24.50;99.90;;;;;;6062610;23;20430;-68
2022/08/17 10:49:06;;;;;;;7.63;6.97;;;24.50;99.90;;;;;;6063206;23;20443;-68
2022/08/17 10:51:38;;;;;;;8.70;7.30;;;24.30;99.90;;;;;;6062589;23;20447;-68
2022/08/17 10:54:07;;;;;;;8.87;8.17;;;24.10;99.90;;;;;;6062965;23;20471;-68
2022/08/17 10:56:43;;;;;;;8.90;8.00;;;24.10;99.90;;;;;;6062479;23;20488;-68
2022/08/17 10:59:46;;;;;;;8.03;7.30;;;24.00;99.90;;;;;;6063142;23;20497;-68
2022/08/17 11:02:21;;;;;;;7.53;6.83;;;23.90;99.90;;;;;;6051318;23;20474;-69
2022/08/17 11:05:00;;;;;;;8.03;7.43;;;23.90;99.90;;;;;;6062955;23;20536;-68
2022/08/17 11:07:42;;;;;;;7.20;6.10;;;23.90;99.90;;;;;;6062638;23;20438;-68
2022/08/17 11:10:44;;;;;;;5.43;5.03;;;23.80;99.90;;;;;;6062831;23;20911;-68
2022/08/17 11:13:26;;;;;;;6.03;5.40;;;23.60;99.90;;;;;;6047277;23;21057;-69
2022/08/17 11:16:07;;;;;;;5.80;5.40;;;23.30;99.90;;;;;;6062412;23;20470;-69
2022/08/17 11:19:07;;;;;;;5.83;5.33;;;23.00;99.90;;;;;;6062716;23;20508;-68
2022/08/17 11:21:53;;;;;;;5.87;5.37;;;22.60;99.90;;;;;;6062738;23;20445;-69
2022/08/17 11:24:27;;;;;;;7.70;5.20;;;22.40;99.90;;;;;;6063253;23;20771;-69
2022/08/17 11:27:12;;;;;;;5.03;4.60;;;22.20;99.90;;;;;;6062629;23;20925;-69
2022/08/17 11:29:50;;;;;;;5.30;4.90;;;22.10;99.90;;;;;;6062922;23;20491;-69
2022/08/17 11:32:40;;;;;;;5.57;5.07;;;22.10;99.90;;;;;;6062949;23;20435;-70
2022/08/17 11:35:33;;;;;;;5.37;4.90;;;22.10;99.90;;;;;;6062630;23;20493;-71
2022/08/17 11:38:12;;;;;;;5.17;4.77;;;22.20;99.90;;;;;;6063198;23;20528;-68
2022/08/17 11:41:04;;;;;;;7.80;5.47;;;22.30;99.90;;;;;;6063272;23;20416;-68
2022/08/17 11:44:04;;;;;;;5.50;5.10;;;22.30;99.90;;;;;;6062663;23;20423;-69
2022/08/17 11:52:44;;;;;;;4.70;4.17;;;22.70;99.90;;;;;;6063114;23;20428;-68
2022/08/17 11:55:33;;;;;;;5.10;4.60;;;22.80;99.90;;;;;;6062019;23;21091;-67
2022/08/17 11:58:03;;;;;;;6.20;5.10;;;22.80;99.90;;;;;;6062520;23;20431;-68
2022/08/17 12:00:56;;;;;;;5.43;5.03;;;22.80;99.90;;;;;;6062854;23;20443;-68
2022/08/17 12:03:42;;;;;;;5.57;5.17;;;22.80;99.90;;;;;;6059605;23;20431;-68
2022/08/17 12:06:31;;;;;;;6.43;5.93;;;22.80;99.90;;;;;;6062186;23;20467;-67
2022/08/17 12:09:05;;;;;;;6.77;6.07;;;22.80;99.90;;;;;;6062980;23;20431;-68
2022/08/17 12:11:41;;;;;;;6.90;6.20;;;22.70;99.90;;;;;;6062673;23;20427;-68
2022/08/17 12:14:10;;;;;;;6.17;5.60;;;22.80;99.90;;;;;;6062759;23;20521;-68
2022/08/17 12:16:38;;;;;;;6.20;5.67;;;23.00;99.90;;;;;;6062326;23;20491;-68
2022/08/17 12:19:07;;;;;;;6.53;5.93;;;23.20;99.90;;;;;;6062826;23;20459;-68
2022/08/17 12:21:45;;;;;;;6.10;5.60;;;23.30;99.90;;;;;;6062772;23;20423;-69
2022/08/17 12:24:24;;;;;;;7.20;5.60;;;23.50;99.90;;;;;;6062924;23;20470;-68
2022/08/17 12:26:53;;;;;;;5.50;5.10;;;23.60;99.90;;;;;;6061845;23;20450;-68
2022/08/17 12:29:20;;;;;;;5.40;5.00;;;23.70;99.90;;;;;;6062274;23;20782;-68
2022/08/17 12:31:50;;;;;;;6.03;5.53;;;23.90;99.90;;;;;;6062877;23;20412;-68
2022/08/17 12:34:20;;;;;;;6.20;5.70;;;24.00;99.90;;;;;;6062698;23;20513;-68
2022/08/17 12:36:50;;;;;;;5.80;5.23;;;24.30;99.90;;;;;;6062564;23;20474;-69
2022/08/17 12:39:21;;;;;;;5.87;5.37;;;24.50;99.90;;;;;;6062956;23;20431;-69
2022/08/17 12:41:51;;;;;;;5.50;5.00;;;24.80;99.90;;;;;;6062146;23;20902;-69
2022/08/17 12:44:22;;;;;;;5.43;5.10;;;25.00;99.90;;;;;;6062456;23;20443;-69
2022/08/17 12:46:56;;;;;;;6.43;5.93;;;25.20;99.90;;;;;;6062442;23;20434;-69
2022/08/17 12:49:28;;;;;;;6.03;5.43;;;25.40;99.90;;;;;;6062471;23;20838;-69
2022/08/17 12:52:06;;;;;;;6.83;6.23;;;25.60;99.90;;;;;;6062292;23;21136;-69
2022/08/17 12:54:41;;;;;;;6.07;5.47;;;25.70;99.90;;;;;;6062541;23;20439;-69
2022/08/17 12:57:13;;;;;;;5.80;5.30;;;25.70;99.90;;;;;;6062483;23;20485;-69
2022/08/17 12:59:43;;;;;;;5.70;5.30;;;25.80;99.90;;;;;;6062252;23;20456;-69
2022/08/17 13:02:21;;;;;;;6.10;5.70;;;26.00;99.90;;;;;;6062368;23;20470;-69
2022/08/17 13:04:49;;;;;;;6.33;5.93;;;26.10;99.90;;;;;;6061941;23;20471;-68
2022/08/17 13:07:27;;;;;;;6.50;6.00;;;26.20;99.90;;;;;;6062352;23;20930;-69
2022/08/17 13:09:55;;;;;;;5.93;5.43;;;26.10;99.90;;;;;;6061924;23;20423;-69
2022/08/17 13:12:28;;;;;;;6.00;5.50;;;25.90;99.90;;;;;;6062109;23;20493;-69
2022/08/17 13:14:56;;;;;;;5.93;5.43;;;26.00;99.90;;;;;;6062136;23;20523;-67
2022/08/17 13:17:34;;;;;;;5.90;5.40;;;26.00;99.90;;;;;;6061714;23;20993;-67
2022/08/17 13:20:03;;;;;;;5.63;5.20;;;26.20;99.90;;;;;;6062345;23;20435;-69
2022/08/17 13:22:32;;;;;;;5.43;4.93;;;26.30;99.90;;;;;;6062343;23;20522;-67
2022/08/17 13:25:05;;;;;;;5.40;4.90;;;26.40;99.90;;;;;;6061349;23;20475;-68
2022/08/17 13:27:33;;;;;;;5.30;4.90;;;26.50;99.90;;;;;;6061896;23;20490;-68
2022/08/17 13:30:04;;;;;;;6.50;6.00;;;26.60;99.90;;;;;;6062276;23;20491;-68
2022/08/17 13:32:39;;;;;;;5.23;4.93;;;26.70;99.90;;;;;;6062203;23;20442;-67
2022/08/17 13:35:27;;;;;;;5.57;5.10;;;26.90;99.90;;;;;;6061611;23;20439;-69
2022/08/17 13:38:01;;;;;;;4.80;4.50;;;27.10;99.90;;;;;;6062121;23;20459;-69
2022/08/17 13:40:36;;;;;;;4.97;4.67;;;27.70;99.90;;;;;;6061945;23;21223;-68
2022/08/17 13:43:04;;;;;;;5.33;4.93;;;28.50;99.50;;;;;;6062190;23;20419;-68